Time;durP1;ratioP1;P1;durP2;ratioP2;P2;SDS_P1;SDS_P2;PMS_P1;PMS_P2;Temp;Humidity;BMP_temperature;BMP_pressure;BME280_temperature;BME280_humidity;BME280_pressure;Samples;Min_cycle;Max_cycle;Signal;HPM_P1;HPM_P2
2023/09/28 00:00:37;;;;;;;5.75;3.13;;;20.40;99.90;;;;;;4166863;28;20071;-73
2023/09/28 00:02:41;;;;;;;3.80;2.50;;;20.40;99.90;;;;;;4183162;28;20032;-72
2023/09/28 00:04:42;;;;;;;3.67;2.70;;;20.40;99.90;;;;;;4179639;28;20069;-73
2023/09/28 00:06:43;;;;;;;4.05;2.75;;;20.40;99.90;;;;;;4179991;28;20017;-73
2023/09/28 00:08:43;;;;;;;6.15;3.58;;;20.40;99.90;;;;;;4178415;28;20410;-73
2023/09/28 00:10:44;;;;;;;3.28;2.47;;;20.40;99.90;;;;;;4178806;28;20134;-74
2023/09/28 00:12:47;;;;;;;4.38;2.40;;;20.40;99.90;;;;;;4180841;28;20029;-74
2023/09/28 00:14:48;;;;;;;3.28;2.50;;;20.40;99.90;;;;;;4181294;28;20524;-73
2023/09/28 00:16:49;;;;;;;3.78;2.80;;;20.40;99.90;;;;;;4173205;28;20049;-69
2023/09/28 00:18:49;;;;;;;6.90;3.10;;;20.40;99.90;;;;;;4175114;28;20048;-69
2023/09/28 00:20:51;;;;;;;3.33;2.50;;;20.40;99.90;;;;;;4182312;28;20037;-69
2023/09/28 00:22:53;;;;;;;4.53;2.70;;;20.40;99.90;;;;;;4183838;28;20379;-66
2023/09/28 00:24:55;;;;;;;4.20;2.50;;;20.40;99.90;;;;;;4178402;28;20028;-67
2023/09/28 00:26:56;;;;;;;4.03;2.80;;;20.40;99.90;;;;;;4188075;28;20486;-67
2023/09/28 00:28:57;;;;;;;11.43;3.03;;;20.40;99.90;;;;;;4187711;28;20394;-66
2023/09/28 00:30:57;;;;;;;3.10;2.50;;;20.40;99.90;;;;;;4181769;28;20025;-67
2023/09/28 00:32:58;;;;;;;4.38;2.83;;;20.40;99.90;;;;;;4181775;28;20525;-67
2023/09/28 00:34:59;;;;;;;4.32;2.58;;;20.40;99.90;;;;;;4184317;28;20491;-66
2023/09/28 00:36:59;;;;;;;3.67;2.58;;;20.40;99.90;;;;;;4186234;28;20104;-66
2023/09/28 00:39:00;;;;;;;3.38;2.38;;;20.40;99.90;;;;;;4179692;28;20926;-67
2023/09/28 00:41:01;;;;;;;7.13;3.30;;;20.40;99.90;;;;;;4188507;28;20029;-67
2023/09/28 00:43:04;;;;;;;3.33;2.58;;;20.30;99.90;;;;;;4186200;28;20441;-66
2023/09/28 00:45:05;;;;;;;4.60;3.03;;;20.30;99.90;;;;;;4186662;28;20486;-67
2023/09/28 00:47:05;;;;;;;3.53;2.55;;;20.20;99.90;;;;;;4187768;28;20028;-67
2023/09/28 00:49:06;;;;;;;5.90;3.10;;;20.30;99.90;;;;;;4188647;28;20588;-67
2023/09/28 00:51:07;;;;;;;4.13;2.28;;;20.20;99.90;;;;;;4173392;28;20033;-67
2023/09/28 00:53:08;;;;;;;3.55;2.42;;;20.20;99.90;;;;;;4177945;28;20446;-66
2023/09/28 00:55:11;;;;;;;3.80;2.92;;;20.30;99.90;;;;;;4175254;28;20047;-67
2023/09/28 00:57:13;;;;;;;2.83;2.22;;;20.20;99.90;;;;;;4163308;28;20022;-66
2023/09/28 00:59:14;;;;;;;7.45;3.03;;;20.20;99.90;;;;;;4179356;28;20052;-66
2023/09/28 01:01:16;;;;;;;3.53;2.37;;;20.20;99.90;;;;;;4189955;28;20394;-67
2023/09/28 01:03:17;;;;;;;4.90;2.60;;;20.20;99.90;;;;;;4189629;28;20025;-66
2023/09/28 01:05:34;;;;;;;4.60;2.50;;;20.20;99.90;;;;;;4181394;28;20044;-67
2023/09/28 01:07:34;;;;;;;7.07;3.00;;;20.20;99.90;;;;;;4181525;28;20039;-68
2023/09/28 01:09:35;;;;;;;3.60;2.70;;;20.20;99.90;;;;;;4182492;28;20437;-67
2023/09/28 01:11:36;;;;;;;3.63;2.50;;;20.20;99.90;;;;;;4181599;28;20083;-67
2023/09/28 01:13:39;;;;;;;3.75;2.38;;;20.20;99.90;;;;;;4185449;28;20044;-67
2023/09/28 01:15:47;;;;;;;2.63;2.10;;;20.20;99.90;;;;;;4184451;28;20044;-67
2023/09/28 01:17:48;;;;;;;5.30;2.75;;;20.20;99.90;;;;;;4186030;28;20037;-67
2023/09/28 01:19:48;;;;;;;3.42;2.30;;;20.20;99.90;;;;;;4174542;28;20033;-66
2023/09/28 01:21:50;;;;;;;3.10;2.50;;;20.20;99.90;;;;;;4172860;28;20777;-66
2023/09/28 01:23:51;;;;;;;3.55;2.30;;;20.20;99.90;;;;;;4184763;28;20033;-66
2023/09/28 01:25:52;;;;;;;2.90;2.10;;;20.30;99.90;;;;;;4187149;28;20073;-66
2023/09/28 01:27:52;;;;;;;2.90;2.20;;;20.30;99.90;;;;;;4182455;28;20135;-66
2023/09/28 01:29:53;;;;;;;3.70;2.50;;;20.30;99.90;;;;;;4183039;28;20463;-67
2023/09/28 01:31:53;;;;;;;3.92;2.25;;;20.30;99.90;;;;;;4185629;28;20518;-73
2023/09/28 01:33:54;;;;;;;3.03;1.92;;;20.30;99.90;;;;;;4182842;28;20448;-66
2023/09/28 01:35:55;;;;;;;2.05;1.70;;;20.30;99.90;;;;;;4164612;28;20037;-69
2023/09/28 01:38:14;;;;;;;3.10;2.22;;;20.30;99.90;;;;;;4182683;28;20036;-67
2023/09/28 01:40:15;;;;;;;3.00;2.17;;;20.30;99.90;;;;;;4177599;28;20120;-67
2023/09/28 01:42:15;;;;;;;5.55;2.60;;;20.30;99.90;;;;;;4175252;28;20031;-66
2023/09/28 01:44:16;;;;;;;3.35;2.25;;;20.30;99.90;;;;;;4176846;28;20037;-66
2023/09/28 01:46:17;;;;;;;2.58;2.20;;;20.30;99.90;;;;;;4180508;28;20430;-66
2023/09/28 01:48:18;;;;;;;2.83;2.17;;;20.30;99.90;;;;;;4181015;28;20136;-66
2023/09/28 01:50:18;;;;;;;4.53;2.50;;;20.30;99.90;;;;;;4182988;28;20432;-67
2023/09/28 01:52:19;;;;;;;3.65;2.30;;;20.30;99.90;;;;;;4184366;28;20405;-67
2023/09/28 01:54:19;;;;;;;4.70;2.50;;;20.30;99.90;;;;;;4182383;28;20033;-66
2023/09/28 01:56:21;;;;;;;2.85;2.00;;;20.30;99.90;;;;;;4179832;28;20033;-67
2023/09/28 01:58:21;;;;;;;2.38;2.13;;;20.30;99.90;;;;;;4183088;28;20032;-67
2023/09/28 02:00:24;;;;;;;2.83;2.30;;;20.30;99.90;;;;;;4180986;28;20040;-66
2023/09/28 02:02:25;;;;;;;2.28;2.05;;;20.30;99.90;;;;;;4185706;28;20039;-67
2023/09/28 02:04:26;;;;;;;3.13;2.22;;;20.30;99.90;;;;;;4175279;28;20037;-66
2023/09/28 02:06:27;;;;;;;4.00;2.20;;;20.30;99.90;;;;;;4178846;28;20465;-66
2023/09/28 02:08:28;;;;;;;3.05;2.00;;;20.30;99.90;;;;;;4184861;28;20083;-66
2023/09/28 02:10:28;;;;;;;2.75;2.03;;;20.20;99.90;;;;;;4179796;28;21386;-67
2023/09/28 02:12:29;;;;;;;3.63;2.00;;;20.20;99.90;;;;;;4172536;28;20041;-68
2023/09/28 02:14:30;;;;;;;2.90;2.08;;;20.20;99.90;;;;;;4164391;28;20121;-66
2023/09/28 02:16:30;;;;;;;3.20;2.38;;;20.20;99.90;;;;;;4166595;28;20038;-67
2023/09/28 02:18:31;;;;;;;2.92;2.13;;;20.20;99.90;;;;;;4176110;28;20512;-68
2023/09/28 02:20:32;;;;;;;3.55;2.30;;;20.20;99.90;;;;;;4176947;28;20441;-66
2023/09/28 02:22:32;;;;;;;2.47;1.92;;;20.20;99.90;;;;;;4183405;28;20048;-67
2023/09/28 02:24:33;;;;;;;3.20;2.47;;;20.20;99.90;;;;;;4181513;28;20466;-68
2023/09/28 02:26:34;;;;;;;3.38;2.40;;;20.20;99.90;;;;;;4178096;28;20044;-68
2023/09/28 02:28:34;;;;;;;2.85;2.00;;;20.10;99.90;;;;;;4187788;28;20400;-66
2023/09/28 02:30:35;;;;;;;3.90;2.30;;;20.20;99.90;;;;;;4180997;28;20041;-66
2023/09/28 02:32:38;;;;;;;2.80;2.28;;;20.20;99.90;;;;;;4182297;28;20044;-69
2023/09/28 02:34:38;;;;;;;2.88;2.08;;;20.20;99.90;;;;;;4181070;28;20037;-67
2023/09/28 02:36:40;;;;;;;2.42;1.85;;;20.20;99.90;;;;;;4176927;28;20036;-67
2023/09/28 02:38:40;;;;;;;2.72;2.00;;;20.20;99.90;;;;;;4176952;28;20041;-67
2023/09/28 02:40:41;;;;;;;2.33;1.90;;;20.20;99.90;;;;;;4180377;28;20032;-66
2023/09/28 02:42:42;;;;;;;3.20;2.33;;;20.10;99.90;;;;;;4181844;28;20055;-67
2023/09/28 02:44:44;;;;;;;2.65;2.13;;;20.10;99.90;;;;;;4185641;28;20033;-67
2023/09/28 02:46:45;;;;;;;3.58;2.30;;;20.10;99.90;;;;;;4180912;28;20110;-67
2023/09/28 02:48:45;;;;;;;3.22;2.42;;;20.00;99.90;;;;;;4188998;28;20041;-66
2023/09/28 02:50:47;;;;;;;2.67;2.20;;;20.10;99.90;;;;;;4181082;28;20041;-67
2023/09/28 02:52:48;;;;;;;2.55;2.10;;;20.00;99.90;;;;;;4193871;28;20036;-66
2023/09/28 02:54:48;;;;;;;4.15;2.50;;;20.00;99.90;;;;;;4182169;28;20032;-66
2023/09/28 02:56:50;;;;;;;2.67;2.10;;;20.00;99.90;;;;;;4184384;28;20032;-66
2023/09/28 02:58:51;;;;;;;3.42;2.47;;;20.00;99.90;;;;;;4186121;28;20036;-66
2023/09/28 03:00:53;;;;;;;3.35;2.33;;;20.00;99.90;;;;;;4182887;28;20024;-66
2023/09/28 03:02:56;;;;;;;3.03;2.25;;;19.90;99.90;;;;;;4184615;28;20083;-66
2023/09/28 03:04:58;;;;;;;3.72;2.15;;;19.90;99.90;;;;;;4183042;28;20029;-67
2023/09/28 03:06:58;;;;;;;3.88;2.45;;;19.90;99.90;;;;;;4169777;28;20033;-67
2023/09/28 03:08:59;;;;;;;4.22;2.65;;;19.90;99.90;;;;;;4181182;28;20173;-66
2023/09/28 03:11:00;;;;;;;3.63;2.63;;;19.90;99.90;;;;;;4165933;28;20025;-66
2023/09/28 03:13:00;;;;;;;2.90;2.42;;;19.90;99.90;;;;;;4180010;28;20047;-67
2023/09/28 03:15:07;;;;;;;4.22;2.50;;;19.90;99.90;;;;;;4179871;28;20040;-67
2023/09/28 03:17:08;;;;;;;3.10;2.47;;;19.90;99.90;;;;;;4184839;28;20021;-67
2023/09/28 03:19:10;;;;;;;3.40;2.47;;;19.90;99.90;;;;;;4181276;28;20390;-67
2023/09/28 03:21:10;;;;;;;3.90;2.50;;;19.80;99.90;;;;;;4177857;28;20029;-67
2023/09/28 03:23:12;;;;;;;4.68;2.47;;;19.80;99.90;;;;;;4174142;28;20043;-67
2023/09/28 03:25:17;;;;;;;3.83;2.70;;;19.80;99.90;;;;;;4164162;28;20032;-67
2023/09/28 03:27:18;;;;;;;4.30;2.63;;;19.80;99.90;;;;;;4178529;28;20044;-66
2023/09/28 03:29:18;;;;;;;3.55;2.60;;;19.80;99.90;;;;;;4182217;28;20390;-66
2023/09/28 03:31:19;;;;;;;3.08;2.28;;;19.80;99.90;;;;;;4174779;28;20548;-67
2023/09/28 03:33:20;;;;;;;2.53;2.33;;;19.80;99.90;;;;;;4180177;28;20406;-66
2023/09/28 03:35:21;;;;;;;2.80;2.17;;;19.70;99.90;;;;;;4182041;28;20386;-67
2023/09/28 03:37:22;;;;;;;4.03;2.30;;;19.70;99.90;;;;;;4179023;28;20032;-66
2023/09/28 03:39:23;;;;;;;4.13;2.20;;;19.70;99.90;;;;;;4179786;28;20033;-66
2023/09/28 03:41:23;;;;;;;3.70;2.40;;;19.70;99.90;;;;;;4177024;28;20116;-66
2023/09/28 03:43:24;;;;;;;2.92;2.50;;;19.70;99.90;;;;;;4177699;28;20179;-66
2023/09/28 03:45:25;;;;;;;3.33;2.47;;;19.60;99.90;;;;;;4184106;28;20116;-67
2023/09/28 03:47:26;;;;;;;6.00;2.95;;;19.60;99.90;;;;;;4181762;28;20063;-66
2023/09/28 03:49:27;;;;;;;4.25;2.70;;;19.60;99.90;;;;;;4176887;28;20503;-67
2023/09/28 03:51:27;;;;;;;3.78;2.50;;;19.60;99.90;;;;;;4180750;28;20040;-69
2023/09/28 03:53:30;;;;;;;4.20;2.65;;;19.60;99.90;;;;;;4181646;28;20049;-69
2023/09/28 03:55:31;;;;;;;3.10;1.90;;;19.60;99.90;;;;;;4182404;28;20045;-68
2023/09/28 03:57:32;;;;;;;2.97;2.25;;;19.60;99.90;;;;;;4177023;28;20053;-69
2023/09/28 03:59:32;;;;;;;3.90;2.60;;;19.50;99.90;;;;;;4178835;28;20029;-69
2023/09/28 04:01:33;;;;;;;3.00;2.33;;;19.50;99.90;;;;;;4181642;28;20479;-69
2023/09/28 04:03:35;;;;;;;4.15;2.33;;;19.50;99.90;;;;;;4187092;28;20501;-69
2023/09/28 04:05:36;;;;;;;2.22;1.83;;;19.50;99.90;;;;;;4183962;28;20043;-69
2023/09/28 04:07:37;;;;;;;2.42;2.10;;;19.50;99.90;;;;;;4183335;28;20041;-69
2023/09/28 04:09:38;;;;;;;2.92;2.15;;;19.50;99.90;;;;;;4191323;28;20060;-69
2023/09/28 04:11:38;;;;;;;2.90;2.28;;;19.50;99.90;;;;;;4182539;28;20025;-68
2023/09/28 04:13:39;;;;;;;3.35;2.42;;;19.50;99.90;;;;;;4182118;28;20053;-69
2023/09/28 04:15:39;;;;;;;3.95;2.35;;;19.50;99.90;;;;;;4181630;28;20128;-69
2023/09/28 04:17:40;;;;;;;2.40;2.10;;;19.50;99.90;;;;;;4184419;28;20029;-68
2023/09/28 04:19:40;;;;;;;3.03;2.35;;;19.50;99.90;;;;;;4165549;28;20395;-69
2023/09/28 04:21:41;;;;;;;2.72;2.28;;;19.50;99.90;;;;;;4174902;28;20029;-68
2023/09/28 04:23:42;;;;;;;3.05;2.30;;;19.50;99.90;;;;;;4187535;28;20519;-68
2023/09/28 04:25:42;;;;;;;3.55;2.92;;;19.40;99.90;;;;;;4178230;28;20414;-68
2023/09/28 04:27:44;;;;;;;3.00;2.40;;;19.40;99.90;;;;;;4177989;28;20021;-68
2023/09/28 04:29:44;;;;;;;2.80;2.10;;;19.40;99.90;;;;;;4184820;28;20029;-68
2023/09/28 04:31:45;;;;;;;2.55;2.13;;;19.40;99.90;;;;;;4181678;28;20044;-68
2023/09/28 04:33:46;;;;;;;2.92;2.10;;;19.40;99.90;;;;;;4190844;28;20041;-68
2023/09/28 04:35:46;;;;;;;3.40;2.00;;;19.40;99.90;;;;;;4159245;28;20376;-69
2023/09/28 04:37:50;;;;;;;4.20;2.80;;;19.40;99.90;;;;;;4186767;28;21597;-69
2023/09/28 04:39:52;;;;;;;2.63;2.13;;;19.40;99.90;;;;;;4180304;28;20474;-69
2023/09/28 04:41:55;;;;;;;4.07;2.58;;;19.40;99.90;;;;;;4181788;28;20395;-69
2023/09/28 04:43:56;;;;;;;3.80;2.42;;;19.30;99.90;;;;;;4182059;28;20032;-68
2023/09/28 04:45:57;;;;;;;6.90;2.88;;;19.40;99.90;;;;;;4177309;28;20032;-69
2023/09/28 04:47:58;;;;;;;4.50;2.17;;;19.30;99.90;;;;;;4181548;28;20041;-68
2023/09/28 04:50:00;;;;;;;3.20;2.20;;;19.30;99.90;;;;;;4178424;28;20410;-69
2023/09/28 04:52:01;;;;;;;4.97;2.53;;;19.30;99.90;;;;;;4180529;28;20130;-69
2023/09/28 04:54:04;;;;;;;2.78;2.25;;;19.30;99.90;;;;;;4181278;28;20048;-69
2023/09/28 04:56:10;;;;;;;5.82;2.70;;;19.30;99.90;;;;;;4177425;28;20039;-69
2023/09/28 04:58:11;;;;;;;3.40;2.55;;;19.30;99.90;;;;;;4167698;28;20044;-69
2023/09/28 05:00:16;;;;;;;3.13;2.42;;;19.30;99.90;;;;;;4176532;28;20403;-69
2023/09/28 05:02:17;;;;;;;2.85;2.17;;;19.20;99.90;;;;;;4180357;28;20671;-73
2023/09/28 05:04:18;;;;;;;2.80;2.20;;;19.20;99.90;;;;;;4161606;28;20118;-74
2023/09/28 05:06:18;;;;;;;3.97;2.88;;;19.20;99.90;;;;;;4167614;28;20045;-72
2023/09/28 05:08:19;;;;;;;4.20;2.33;;;19.20;99.90;;;;;;4166110;28;20110;-74
2023/09/28 05:10:19;;;;;;;5.75;2.38;;;19.20;99.90;;;;;;4170339;28;20470;-73
2023/09/28 05:12:20;;;;;;;4.10;2.80;;;19.20;99.90;;;;;;4177303;28;20037;-73
2023/09/28 05:14:24;;;;;;;4.35;2.72;;;19.20;99.90;;;;;;4176999;28;20045;-73
2023/09/28 05:16:24;;;;;;;6.55;2.75;;;19.10;99.90;;;;;;4177208;28;20494;-74
2023/09/28 05:18:25;;;;;;;4.47;2.70;;;19.10;99.90;;;;;;4178686;28;20114;-73
2023/09/28 05:20:26;;;;;;;4.22;2.60;;;19.10;99.90;;;;;;4174355;28;20041;-73
2023/09/28 05:22:27;;;;;;;2.45;2.15;;;19.10;99.90;;;;;;4178213;28;20397;-74
2023/09/28 05:24:28;;;;;;;4.07;2.38;;;19.00;99.90;;;;;;4174681;28;20033;-69
2023/09/28 05:26:28;;;;;;;4.55;2.45;;;19.00;99.90;;;;;;4169336;28;20064;-70
2023/09/28 05:28:29;;;;;;;4.15;2.67;;;19.00;99.90;;;;;;4179042;28;20037;-73
2023/09/28 05:30:30;;;;;;;4.45;2.88;;;19.00;99.90;;;;;;4180572;28;20041;-73
2023/09/28 05:32:31;;;;;;;5.20;3.08;;;19.00;99.90;;;;;;4196769;28;20074;-71
2023/09/28 05:34:32;;;;;;;3.38;2.60;;;18.90;99.90;;;;;;4178664;28;20313;-74
2023/09/28 05:36:33;;;;;;;4.78;3.10;;;18.90;99.90;;;;;;4179096;28;20132;-74
2023/09/28 05:38:34;;;;;;;4.97;2.70;;;18.90;99.90;;;;;;4181688;28;20148;-72
2023/09/28 05:40:34;;;;;;;7.70;2.80;;;18.90;99.90;;;;;;4180700;28;20069;-72
2023/09/28 05:42:35;;;;;;;5.32;2.90;;;18.90;99.90;;;;;;4179429;28;20051;-71
2023/09/28 05:44:36;;;;;;;5.18;2.80;;;18.90;99.90;;;;;;4180620;28;20041;-73
2023/09/28 05:46:37;;;;;;;4.57;3.00;;;18.90;99.90;;;;;;4178959;28;20104;-72
2023/09/28 05:48:38;;;;;;;4.22;2.83;;;18.90;99.90;;;;;;4163952;28;20054;-70
2023/09/28 05:50:41;;;;;;;6.05;3.28;;;18.80;99.90;;;;;;4160823;28;20045;-72
2023/09/28 05:52:42;;;;;;;5.13;2.70;;;18.80;99.90;;;;;;4167982;28;20067;-74
2023/09/28 05:54:43;;;;;;;4.05;2.80;;;18.70;99.90;;;;;;4181578;28;20417;-70
2023/09/28 05:56:44;;;;;;;5.13;2.72;;;18.70;99.90;;;;;;4174250;28;20077;-72
2023/09/28 05:58:48;;;;;;;5.00;3.05;;;18.70;99.90;;;;;;4174047;28;20044;-70
2023/09/28 06:00:48;;;;;;;3.97;2.95;;;18.70;99.90;;;;;;4173086;28;20800;-73
2023/09/28 06:02:49;;;;;;;4.88;2.85;;;18.70;99.90;;;;;;4176969;28;20071;-70
2023/09/28 06:04:50;;;;;;;4.75;3.13;;;18.70;99.90;;;;;;4180290;28;20047;-70
2023/09/28 06:06:51;;;;;;;3.63;2.72;;;18.80;99.90;;;;;;4179583;28;20038;-74
2023/09/28 06:08:52;;;;;;;5.05;2.90;;;18.80;99.90;;;;;;4176388;28;21061;-73
2023/09/28 06:10:53;;;;;;;3.97;2.72;;;18.70;99.90;;;;;;4175741;28;20027;-73
2023/09/28 06:12:54;;;;;;;6.03;2.90;;;18.70;99.90;;;;;;4179258;28;20083;-75
2023/09/28 06:14:54;;;;;;;5.13;3.03;;;18.70;99.90;;;;;;4176708;28;20047;-72
2023/09/28 06:16:56;;;;;;;4.20;2.83;;;18.70;99.90;;;;;;4177390;28;20024;-69
2023/09/28 06:18:56;;;;;;;5.85;2.83;;;18.80;99.90;;;;;;4175615;28;20032;-73
2023/09/28 06:20:57;;;;;;;5.57;2.53;;;18.80;99.90;;;;;;4178137;28;20053;-73
2023/09/28 06:22:58;;;;;;;3.97;2.83;;;18.80;99.90;;;;;;4179530;28;20112;-73
2023/09/28 06:24:58;;;;;;;4.10;2.78;;;18.80;99.90;;;;;;4177034;28;20041;-72
2023/09/28 06:26:59;;;;;;;4.10;2.42;;;18.80;99.90;;;;;;4176186;28;20032;-73
2023/09/28 06:29:00;;;;;;;6.32;3.00;;;18.90;99.90;;;;;;4168769;28;20033;-70
2023/09/28 06:31:01;;;;;;;4.13;2.42;;;18.90;99.90;;;;;;4175097;28;20090;-70
2023/09/28 06:33:02;;;;;;;5.72;3.13;;;18.90;99.90;;;;;;4177137;28;20228;-72
2023/09/28 06:35:03;;;;;;;3.95;2.50;;;18.90;99.90;;;;;;4178788;28;20072;-72
2023/09/28 06:37:04;;;;;;;4.22;2.80;;;18.90;99.90;;;;;;4180895;28;20036;-71
2023/09/28 06:39:05;;;;;;;3.42;2.80;;;19.00;99.90;;;;;;4177809;28;20033;-67
2023/09/28 06:41:05;;;;;;;3.53;2.65;;;19.00;99.90;;;;;;4157560;28;20029;-74
2023/09/28 06:43:06;;;;;;;4.10;2.58;;;19.10;99.90;;;;;;4166778;28;20056;-73
2023/09/28 06:45:07;;;;;;;3.00;2.47;;;19.20;99.90;;;;;;4175573;28;20093;-71
2023/09/28 06:47:08;;;;;;;4.35;2.60;;;19.30;99.90;;;;;;4173969;28;20057;-72
2023/09/28 06:49:09;;;;;;;4.78;2.90;;;19.40;99.90;;;;;;4179213;28;20476;-71
2023/09/28 06:51:09;;;;;;;4.03;2.75;;;19.50;99.90;;;;;;4181208;28;20033;-69
2023/09/28 06:53:10;;;;;;;3.92;2.85;;;19.60;99.90;;;;;;4177742;28;20449;-73
2023/09/28 06:55:11;;;;;;;4.20;2.85;;;19.80;99.90;;;;;;4176562;28;20172;-71
2023/09/28 06:57:12;;;;;;;4.07;2.92;;;19.90;99.90;;;;;;4177213;28;20064;-69
2023/09/28 06:59:13;;;;;;;5.95;2.83;;;20.00;99.90;;;;;;4179454;28;20102;-70
2023/09/28 07:01:13;;;;;;;3.55;2.53;;;20.10;99.90;;;;;;4176315;28;20556;-71
2023/09/28 07:03:16;;;;;;;4.05;2.72;;;20.30;99.90;;;;;;4179877;28;20037;-73
2023/09/28 07:05:17;;;;;;;4.30;2.72;;;20.40;99.90;;;;;;4181254;28;20044;-70
2023/09/28 07:07:18;;;;;;;3.80;2.45;;;20.60;99.90;;;;;;4170208;28;20040;-73
2023/09/28 07:09:19;;;;;;;5.75;2.92;;;20.80;99.90;;;;;;4183380;28;20587;-66
2023/09/28 07:11:21;;;;;;;7.27;3.30;;;20.90;99.90;;;;;;4178541;28;20067;-67
2023/09/28 07:13:21;;;;;;;4.50;3.03;;;21.10;99.90;;;;;;4181680;28;20047;-67
2023/09/28 07:15:22;;;;;;;5.88;2.83;;;21.30;99.90;;;;;;4173267;28;20247;-66
2023/09/28 07:17:22;;;;;;;5.13;2.67;;;21.40;99.90;;;;;;4181103;28;20048;-66
2023/09/28 07:19:23;;;;;;;4.32;2.60;;;21.60;99.90;;;;;;4180394;28;20055;-68
2023/09/28 07:21:24;;;;;;;5.45;2.70;;;21.80;99.90;;;;;;4176511;28;20126;-66
2023/09/28 07:23:24;;;;;;;5.95;2.40;;;22.00;99.90;;;;;;4181709;28;20654;-69
2023/09/28 07:25:25;;;;;;;3.42;2.50;;;22.20;99.90;;;;;;4159996;28;20040;-69
2023/09/28 07:27:31;;;;;;;4.97;3.00;;;22.40;99.90;;;;;;4179024;28;20118;-69
2023/09/28 07:29:31;;;;;;;5.75;3.05;;;22.50;99.90;;;;;;4178773;28;20045;-69
2023/09/28 07:31:34;;;;;;;5.20;2.28;;;22.80;99.90;;;;;;4175133;28;20194;-70
2023/09/28 07:33:36;;;;;;;7.43;3.10;;;22.90;99.90;;;;;;4180949;28;20049;-69
2023/09/28 07:35:37;;;;;;;4.32;2.50;;;23.10;99.90;;;;;;4180867;28;20068;-70
2023/09/28 07:37:39;;;;;;;3.85;2.20;;;23.20;99.90;;;;;;4182323;28;20041;-70
2023/09/28 07:39:40;;;;;;;4.13;2.65;;;23.50;99.90;;;;;;4178876;28;20098;-70
2023/09/28 07:41:40;;;;;;;5.72;2.85;;;23.70;99.90;;;;;;4178550;28;20029;-69
2023/09/28 07:43:41;;;;;;;3.45;2.50;;;23.80;99.90;;;;;;4182352;28;20029;-69
2023/09/28 07:45:42;;;;;;;5.03;2.35;;;23.90;99.90;;;;;;4181701;28;20548;-69
2023/09/28 07:47:42;;;;;;;3.83;2.40;;;24.20;99.90;;;;;;4177489;28;20048;-70
2023/09/28 07:49:43;;;;;;;3.20;2.45;;;24.40;99.90;;;;;;4188744;28;20200;-67
2023/09/28 07:51:44;;;;;;;3.33;2.35;;;24.60;99.90;;;;;;4180724;28;20490;-67
2023/09/28 07:53:44;;;;;;;4.05;2.53;;;24.80;99.90;;;;;;4182411;28;20086;-65
2023/09/28 07:55:45;;;;;;;4.53;2.65;;;25.00;99.90;;;;;;4181048;28;20044;-65
2023/09/28 07:57:47;;;;;;;4.72;3.05;;;25.10;99.90;;;;;;4181736;28;20501;-64
2023/09/28 07:59:48;;;;;;;3.40;2.38;;;25.10;99.90;;;;;;4181908;28;20079;-65
2023/09/28 08:01:49;;;;;;;9.20;2.60;;;25.20;99.90;;;;;;4181579;28;20037;-66
2023/09/28 08:03:50;;;;;;;3.38;2.40;;;25.30;99.90;;;;;;4181176;28;20075;-65
2023/09/28 08:05:54;;;;;;;3.53;2.00;;;25.30;99.90;;;;;;4177529;28;20036;-66
2023/09/28 08:07:54;;;;;;;3.28;2.40;;;25.30;99.90;;;;;;4184721;28;20033;-65
2023/09/28 08:09:55;;;;;;;5.28;2.78;;;25.40;99.90;;;;;;4179763;28;20048;-65
2023/09/28 08:11:56;;;;;;;3.92;2.85;;;25.40;99.90;;;;;;4178590;28;20702;-65
2023/09/28 08:13:56;;;;;;;4.65;2.67;;;25.40;99.90;;;;;;4180494;28;20098;-65
2023/09/28 08:15:58;;;;;;;3.47;2.60;;;25.50;99.90;;;;;;4177930;28;20037;-65
2023/09/28 08:17:58;;;;;;;4.47;2.47;;;25.40;99.90;;;;;;4181303;28;20090;-64
2023/09/28 08:19:59;;;;;;;6.45;2.67;;;25.30;99.90;;;;;;4181807;28;20449;-65
2023/09/28 08:22:00;;;;;;;3.60;2.45;;;25.30;99.90;;;;;;4183603;28;20086;-65
2023/09/28 08:24:01;;;;;;;6.13;2.40;;;25.20;99.90;;;;;;4183032;28;20040;-67
2023/09/28 08:26:02;;;;;;;4.20;2.42;;;25.20;99.90;;;;;;4180536;28;20037;-65
2023/09/28 08:28:03;;;;;;;4.85;2.33;;;25.20;99.90;;;;;;4183032;28;20508;-66
2023/09/28 08:30:04;;;;;;;5.88;2.72;;;25.20;99.90;;;;;;4181955;28;20048;-66
2023/09/28 08:32:05;;;;;;;6.07;2.65;;;25.00;99.90;;;;;;4178160;28;20037;-72
2023/09/28 08:34:08;;;;;;;6.30;2.80;;;25.00;99.90;;;;;;4179182;28;20029;-67
2023/09/28 08:36:08;;;;;;;6.00;2.45;;;24.90;99.90;;;;;;4180169;28;20053;-65
2023/09/28 08:38:09;;;;;;;6.30;2.83;;;24.80;99.90;;;;;;4179080;28;20086;-65
2023/09/28 08:40:10;;;;;;;4.78;2.35;;;24.80;99.90;;;;;;4183642;28;20448;-65
2023/09/28 08:42:15;;;;;;;4.53;2.75;;;24.80;99.90;;;;;;4181599;28;20086;-65
2023/09/28 08:44:15;;;;;;;8.63;2.50;;;24.80;99.90;;;;;;4181568;28;20386;-65
2023/09/28 08:46:20;;;;;;;14.93;3.47;;;24.80;99.90;;;;;;4182900;28;20044;-65
2023/09/28 08:48:26;;;;;;;6.22;2.50;;;24.70;99.90;;;;;;4181824;28;20119;-65
2023/09/28 08:50:35;;;;;;;7.07;2.38;;;24.60;99.90;;;;;;4164125;28;20749;-64
2023/09/28 08:52:36;;;;;;;3.83;1.60;;;24.60;99.90;;;;;;4183679;28;20025;-65
2023/09/28 08:54:37;;;;;;;4.72;2.00;;;24.60;99.90;;;;;;4182045;28;20045;-65
2023/09/28 08:56:42;;;;;;;7.50;2.40;;;24.60;99.90;;;;;;4180445;28;20062;-65
2023/09/28 08:58:45;;;;;;;4.85;2.53;;;24.60;99.90;;;;;;4182160;28;20042;-65
2023/09/28 09:00:46;;;;;;;6.15;2.42;;;24.60;99.90;;;;;;4180352;28;20486;-65
2023/09/28 09:02:49;;;;;;;5.25;2.35;;;24.50;99.90;;;;;;4180582;28;20033;-66
2023/09/28 09:04:49;;;;;;;;;;;24.60;99.90;;;;;;4182298;28;20501;-66
2023/09/28 09:06:51;;;;;;;6.68;2.55;;;24.60;99.90;;;;;;4178014;28;19998;-65
2023/09/28 09:08:53;;;;;;;4.65;2.50;;;24.60;99.90;;;;;;4179316;28;20032;-65
2023/09/28 09:10:54;;;;;;;6.63;2.78;;;24.60;99.90;;;;;;4180760;28;21211;-66
2023/09/28 09:12:55;;;;;;;4.97;2.20;;;24.70;99.90;;;;;;4180165;28;20118;-65
2023/09/28 09:14:57;;;;;;;7.40;3.03;;;24.60;99.90;;;;;;4179939;28;20052;-66
2023/09/28 09:16:58;;;;;;;6.18;2.58;;;24.60;99.90;;;;;;4180408;28;20036;-65
2023/09/28 09:18:59;;;;;;;6.97;2.87;;;24.60;99.90;;;;;;4181981;28;20215;-65
2023/09/28 09:21:00;;;;;;;8.35;2.75;;;24.60;99.90;;;;;;4181669;28;20060;-64
2023/09/28 09:23:11;;;;;;;5.45;2.28;;;24.50;99.90;;;;;;4179731;28;20055;-64
2023/09/28 09:25:12;;;;;;;7.75;2.80;;;24.50;99.90;;;;;;4174863;28;20044;-66
2023/09/28 09:27:13;;;;;;;9.98;2.70;;;24.50;99.90;;;;;;4177580;28;20112;-65
2023/09/28 09:29:15;;;;;;;6.88;2.65;;;24.50;99.90;;;;;;4180080;28;20510;-66
2023/09/28 09:31:16;;;;;;;6.35;2.42;;;24.50;99.90;;;;;;4180199;28;20115;-65
2023/09/28 09:33:16;;;;;;;5.82;2.55;;;24.40;99.90;;;;;;4184172;28;20033;-64
2023/09/28 09:35:20;;;;;;;6.25;2.13;;;24.40;99.90;;;;;;4170815;28;20032;-65
2023/09/28 09:37:21;;;;;;;3.53;2.10;;;24.40;99.90;;;;;;4182080;28;20033;-64
2023/09/28 09:39:27;;;;;;;12.68;2.75;;;24.20;99.90;;;;;;4180191;28;20048;-64
2023/09/28 09:41:29;;;;;;;4.78;2.15;;;24.30;99.90;;;;;;4180797;28;20083;-65
2023/09/28 09:43:34;;;;;;;5.32;2.10;;;24.30;99.90;;;;;;4182811;28;20052;-72
2023/09/28 09:45:41;;;;;;;5.25;2.35;;;24.30;99.90;;;;;;4180016;28;20037;-69
2023/09/28 09:47:47;;;;;;;6.57;2.63;;;24.30;99.90;;;;;;4182386;28;20503;-69
2023/09/28 09:49:49;;;;;;;4.75;2.28;;;24.30;99.90;;;;;;4181699;28;20033;-74
2023/09/28 09:51:49;;;;;;;7.90;2.90;;;24.30;99.90;;;;;;4179345;28;20028;-74
2023/09/28 09:53:50;;;;;;;4.35;1.88;;;24.30;99.90;;;;;;4181289;28;20044;-72
2023/09/28 09:55:54;;;;;;;5.88;2.35;;;24.20;99.90;;;;;;4181618;28;20441;-75
2023/09/28 09:58:02;;;;;;;10.05;2.35;;;24.20;99.90;;;;;;4177336;28;20049;-73
2023/09/28 10:00:07;;;;;;;8.40;2.75;;;24.10;99.90;;;;;;4177232;28;20060;-70
2023/09/28 10:02:23;;;;;;;6.43;2.50;;;24.10;99.90;;;;;;4182255;28;20170;-75
2023/09/28 10:04:26;;;;;;;3.92;2.28;;;24.10;99.90;;;;;;4179821;28;20049;-74
2023/09/28 10:06:27;;;;;;;6.18;2.40;;;24.10;99.90;;;;;;4180790;28;20127;-74
2023/09/28 10:08:32;;;;;;;5.87;2.43;;;24.10;99.90;;;;;;4179613;28;20394;-75
2023/09/28 10:10:34;;;;;;;8.40;2.75;;;24.10;99.90;;;;;;4180499;28;20033;-71
2023/09/28 10:12:36;;;;;;;10.07;2.70;;;24.10;99.90;;;;;;4179496;28;20130;-75
2023/09/28 10:14:38;;;;;;;9.32;3.05;;;24.10;99.90;;;;;;4181436;28;20053;-73
2023/09/28 10:16:41;;;;;;;7.68;2.78;;;24.00;99.90;;;;;;4173638;28;20060;-74
2023/09/28 10:18:45;;;;;;;9.77;3.00;;;24.00;99.90;;;;;;4179219;28;20032;-75
2023/09/28 10:20:45;;;;;;;9.98;2.92;;;24.10;99.90;;;;;;4176980;28;20064;-74
2023/09/28 10:22:47;;;;;;;9.60;2.55;;;23.80;99.90;;;;;;4179903;28;20456;-74
2023/09/28 10:24:48;;;;;;;6.65;2.38;;;23.90;99.90;;;;;;4181967;28;20029;-74
2023/09/28 10:26:51;;;;;;;6.72;3.08;;;24.00;99.90;;;;;;4178183;28;20075;-73
2023/09/28 10:29:07;;;;;;;6.25;2.22;;;24.00;99.90;;;;;;4181878;28;20037;-73
2023/09/28 10:31:15;;;;;;;6.20;2.50;;;24.00;99.90;;;;;;4168708;28;20029;-73
2023/09/28 10:33:16;;;;;;;9.57;2.67;;;24.10;99.90;;;;;;4175869;28;20021;-73